createdAt,value
2018-02-06T00:00:06.844Z,38.60
2018-02-06T00:02:34.918Z,39.45
2018-02-06T00:05:03.711Z,35.45
2018-02-06T00:07:32.178Z,33.70
2018-02-06T00:10:00.634Z,41.90
2018-02-06T00:12:29.013Z,35.80
2018-02-06T00:14:57.397Z,39.67
2018-02-06T00:17:25.809Z,35.42
2018-02-06T00:19:54.303Z,39.42
2018-02-06T00:22:22.683Z,41.95
2018-02-06T00:24:51.052Z,33.92
2018-02-06T00:27:19.426Z,39.70
2018-02-06T00:29:48.119Z,36.80
2018-02-06T00:32:16.512Z,37.97
2018-02-06T00:34:44.862Z,34.20
2018-02-06T00:37:13.265Z,32.78
2018-02-06T00:39:41.691Z,39.20
2018-02-06T00:42:10.290Z,40.55
2018-02-06T00:44:38.705Z,42.78
2018-02-06T00:47:07.054Z,39.03
2018-02-06T00:49:35.425Z,28.23
2018-02-06T00:52:03.785Z,37.72
2018-02-06T00:54:32.555Z,43.33
2018-02-06T00:57:01.045Z,39.63
2018-02-06T00:59:28.724Z,40.08
2018-02-06T01:01:56.957Z,41.80
2018-02-06T01:04:25.283Z,39.38
2018-02-06T01:06:53.707Z,40.97
2018-02-06T01:09:22.069Z,27.60
2018-02-06T01:11:50.430Z,35.45
2018-02-06T01:14:18.781Z,38.13
2018-02-06T01:16:47.141Z,34.17
2018-02-06T01:19:15.637Z,33.35
2018-02-06T01:21:44.025Z,34.40
2018-02-06T01:24:12.566Z,34.65
2018-02-06T01:26:40.968Z,34.80
2018-02-06T01:29:09.336Z,32.13
2018-02-06T01:31:38.061Z,39.05
2018-02-06T01:34:06.467Z,40.12
2018-02-06T01:36:34.821Z,45.85
2018-02-06T01:39:03.182Z,43.03
2018-02-06T01:41:31.582Z,41.92
2018-02-06T01:44:00.258Z,36.45
2018-02-06T01:46:28.647Z,46.08
2018-02-06T01:48:57.078Z,39.55
2018-02-06T01:51:25.463Z,50.00
2018-02-06T01:53:53.847Z,39.35
2018-02-06T01:56:22.216Z,39.80
2018-02-06T01:58:50.594Z,35.38
2018-02-06T02:01:19.064Z,44.80
2018-02-06T02:03:47.441Z,44.40
2018-02-06T02:06:15.822Z,42.08
2018-02-06T02:08:44.224Z,44.28
2018-02-06T02:11:12.581Z,37.40
2018-02-06T02:13:41.004Z,37.05
2018-02-06T02:16:09.391Z,43.03
2018-02-06T02:18:37.787Z,38.90
2018-02-06T02:21:06.249Z,35.10
2018-02-06T02:23:34.614Z,38.45
2018-02-06T02:26:03.029Z,34.03
2018-02-06T02:28:31.415Z,45.03
2018-02-06T02:30:59.758Z,43.47
2018-02-06T02:33:28.157Z,40.15
2018-02-06T02:35:56.549Z,48.50
2018-02-06T02:38:24.975Z,40.45
2018-02-06T02:40:53.363Z,38.60
2018-02-06T04:39:41.730Z,42.92
2018-02-06T04:42:10.129Z,40.17
2018-02-06T04:44:38.563Z,36.00
2018-02-06T04:47:06.913Z,36.50
2018-02-06T04:49:35.280Z,38.08
2018-02-06T04:52:03.646Z,38.50
2018-02-06T04:54:31.999Z,41.60
2018-02-06T04:57:00.350Z,44.65
2018-02-06T04:59:28.725Z,43.53
2018-02-06T05:01:57.090Z,37.50
2018-02-06T05:04:25.466Z,39.47
2018-02-06T05:06:53.931Z,40.58
2018-02-06T05:09:22.327Z,46.97
2018-02-06T05:11:50.718Z,49.38
2018-02-06T05:14:19.086Z,45.92
2018-02-06T05:16:47.447Z,39.17
2018-02-06T05:19:15.883Z,40.85
2018-02-06T05:21:44.259Z,43.13
2018-02-06T05:24:12.653Z,45.00
2018-02-06T05:26:41.070Z,36.67
2018-02-06T05:29:09.450Z,42.15
2018-02-06T05:31:37.907Z,40.45
2018-02-06T05:34:06.280Z,39.28
2018-02-06T05:36:34.646Z,42.35
2018-02-06T05:39:03.002Z,39.08
2018-02-06T05:41:31.403Z,34.00
2018-02-06T05:43:59.824Z,41.30
2018-02-06T05:46:28.313Z,40.38
2018-02-06T05:48:56.679Z,44.45
2018-02-06T05:51:25.079Z,38.42
2018-02-06T05:53:53.492Z,44.22
2018-02-06T05:56:21.925Z,35.35
2018-02-06T05:58:50.304Z,38.53
2018-02-06T06:01:18.690Z,40.12
2018-02-06T06:03:47.078Z,40.83
2018-02-06T06:06:15.448Z,38.58
2018-02-06T06:08:43.903Z,37.45
2018-02-06T06:11:12.288Z,37.38
2018-02-06T06:13:40.770Z,41.60
2018-02-06T06:16:09.120Z,35.78
2018-02-06T06:18:37.494Z,36.15
2018-02-06T06:21:05.895Z,42.85
2018-02-06T06:23:34.368Z,40.53
2018-02-06T06:26:02.781Z,49.47
2018-02-06T06:28:31.174Z,49.70
2018-02-06T06:30:59.568Z,45.95
2018-02-06T06:33:28.015Z,46.40
2018-02-06T06:35:56.393Z,41.95
2018-02-06T06:38:24.763Z,42.50
2018-02-06T06:40:53.159Z,48.67
2018-02-06T06:43:21.551Z,41.88
2018-02-06T06:45:50.008Z,45.70
2018-02-06T06:48:18.391Z,42.95
2018-02-06T06:50:46.813Z,43.65
2018-02-06T06:53:15.199Z,44.60
2018-02-06T06:55:43.665Z,45.90
2018-02-06T06:58:12.089Z,37.88
2018-02-06T07:00:40.513Z,44.10
2018-02-06T07:03:08.862Z,50.05
2018-02-06T07:05:37.249Z,46.45
2018-02-06T07:08:05.602Z,64.07
2018-02-06T07:10:34.061Z,41.10
2018-02-06T07:13:02.453Z,42.75
2018-02-06T07:15:30.823Z,39.88
2018-02-06T07:17:59.178Z,45.05
2018-02-06T07:20:27.552Z,45.80
2018-02-06T07:22:56.005Z,38.95
2018-02-06T07:25:24.387Z,35.67
2018-02-06T07:27:52.769Z,42.70
2018-02-06T07:30:21.173Z,41.97
2018-02-06T07:32:49.560Z,46.00
2018-02-06T07:35:17.963Z,40.63
2018-02-06T07:37:46.381Z,40.97
2018-02-06T07:40:14.809Z,42.97
2018-02-06T07:42:43.173Z,54.00
2018-02-06T07:45:11.545Z,42.67
2018-02-06T07:47:39.954Z,39.60
2018-02-06T07:50:08.391Z,42.28
2018-02-06T07:52:36.838Z,38.83
2018-02-06T07:55:05.390Z,36.75
2018-02-06T07:57:33.796Z,42.60
2018-02-06T08:00:02.227Z,42.65
2018-02-06T08:02:30.649Z,35.63
2018-02-06T08:04:59.434Z,37.33
2018-02-06T08:07:27.782Z,37.05
2018-02-06T08:09:56.178Z,35.90
2018-02-06T08:12:24.592Z,42.88
2018-02-06T08:14:52.958Z,36.50
2018-02-06T08:17:21.430Z,31.55
2018-02-06T08:19:49.850Z,33.15
2018-02-06T08:22:18.205Z,31.17
2018-02-06T08:24:46.676Z,32.70
2018-02-06T08:27:15.143Z,36.60
2018-02-06T08:29:43.607Z,37.45
2018-02-06T08:32:11.991Z,34.13
2018-02-06T08:34:40.373Z,36.50
2018-02-06T08:37:08.787Z,35.80
2018-02-06T08:39:37.271Z,38.42
2018-02-06T08:42:05.734Z,37.38
2018-02-06T08:44:34.210Z,34.92
2018-02-06T08:47:02.609Z,28.05
2018-02-06T08:49:31.010Z,33.47
2018-02-06T08:51:59.655Z,28.33
2018-02-06T08:54:28.152Z,30.48
2018-02-06T08:56:56.562Z,32.92
2018-02-06T08:59:24.960Z,35.30
2018-02-06T09:01:53.399Z,30.77
2018-02-06T09:04:21.857Z,34.45
2018-02-06T09:06:50.305Z,32.03
2018-02-06T09:09:18.882Z,34.53
2018-02-06T09:11:47.278Z,30.08
2018-02-06T09:14:15.661Z,29.17
2018-02-06T09:16:44.054Z,29.52
2018-02-06T09:19:12.503Z,27.92
2018-02-06T09:21:40.900Z,32.45
2018-02-06T09:24:10.190Z,39.47
2018-02-06T09:26:38.578Z,32.30
2018-02-06T09:29:07.053Z,35.47
2018-02-06T09:31:35.524Z,25.83
2018-02-06T09:34:03.905Z,25.90
2018-02-06T09:36:32.330Z,39.53
2018-02-06T09:39:00.734Z,33.03
2018-02-06T09:41:29.113Z,29.63
2018-02-06T09:43:57.571Z,28.50
2018-02-06T09:46:25.973Z,32.33
2018-02-06T09:48:54.375Z,25.73
2018-02-06T09:51:22.755Z,30.25
2018-02-06T09:53:51.146Z,24.95
2018-02-06T09:56:19.725Z,30.42
2018-02-06T09:58:48.125Z,29.37
2018-02-06T10:01:16.581Z,30.48
2018-02-06T10:03:44.990Z,28.60
2018-02-06T10:06:13.383Z,28.80
2018-02-06T10:08:41.857Z,26.90
2018-02-06T10:11:10.245Z,29.00
2018-02-06T10:13:38.642Z,28.20
2018-02-06T10:16:07.064Z,24.70
2018-02-06T10:18:35.441Z,26.65
2018-02-06T10:21:03.908Z,24.60
2018-02-06T10:23:32.287Z,27.00
2018-02-06T10:26:00.678Z,26.85
2018-02-06T10:28:29.061Z,24.63
2018-02-06T10:30:57.490Z,30.85
2018-02-06T10:33:26.058Z,25.45
2018-02-06T10:35:54.469Z,29.85
2018-02-06T10:38:22.852Z,30.65
2018-02-06T10:40:51.250Z,31.00
2018-02-06T10:43:19.649Z,31.12
2018-02-06T10:45:48.157Z,25.17
2018-02-06T10:48:16.546Z,29.33
2018-02-06T10:50:44.941Z,27.75
2018-02-06T10:53:13.334Z,33.88
2018-02-06T10:55:41.723Z,29.58
2018-02-06T10:58:10.180Z,33.22
2018-02-06T11:00:38.582Z,30.77
2018-02-06T11:03:06.986Z,26.00
2018-02-06T11:05:35.458Z,29.17
2018-02-06T11:08:03.835Z,26.27
2018-02-06T11:10:32.410Z,28.12
2018-02-06T11:13:00.914Z,32.33
2018-02-06T11:15:29.310Z,30.02
2018-02-06T11:17:57.685Z,27.67
2018-02-06T11:20:26.161Z,29.40
2018-02-06T11:22:54.647Z,25.45
2018-02-06T11:25:23.045Z,27.62
2018-02-06T11:27:51.431Z,24.77
2018-02-06T11:30:19.811Z,25.25
2018-02-06T11:32:48.246Z,28.98
2018-02-06T11:35:16.723Z,30.58
2018-02-06T11:37:45.486Z,27.48
2018-02-06T11:40:13.938Z,27.80
2018-02-06T11:42:43.018Z,29.00
2018-02-06T11:45:11.482Z,28.55
2018-02-06T11:47:39.876Z,31.00
2018-02-06T11:50:08.331Z,23.15
2018-02-06T11:52:37.637Z,29.58
2018-02-06T11:55:06.205Z,31.45
2018-02-06T11:57:34.596Z,33.53
2018-02-06T12:00:02.999Z,30.27
2018-02-06T12:02:31.402Z,35.90
2018-02-06T12:04:59.946Z,27.45
2018-02-06T12:07:28.334Z,26.52
2018-02-06T12:09:56.808Z,28.73
2018-02-06T12:12:25.194Z,30.95
2018-02-06T12:14:53.588Z,29.95
2018-02-06T12:17:22.151Z,32.10
2018-02-06T12:19:50.521Z,29.65
2018-02-06T12:22:18.919Z,33.10
2018-02-06T12:24:47.419Z,34.47
2018-02-06T12:27:15.817Z,31.23
2018-02-06T12:29:44.263Z,31.52
2018-02-06T12:32:12.737Z,32.42
2018-02-06T12:34:41.128Z,32.88
2018-02-06T12:37:09.524Z,36.13
2018-02-06T12:39:43.737Z,41.28
2018-02-06T12:42:12.214Z,34.65
2018-02-06T12:44:40.643Z,32.47
2018-02-06T12:47:09.163Z,32.88
2018-02-06T12:49:37.618Z,35.60
2018-02-06T12:52:06.017Z,32.47
2018-02-06T12:54:34.501Z,31.70
2018-02-06T12:57:02.895Z,29.00
2018-02-06T13:01:59.686Z,29.25
2018-02-06T13:04:29.164Z,31.02
2018-02-06T13:06:57.609Z,36.88
2018-02-06T13:09:26.050Z,35.20
2018-02-06T13:11:54.452Z,35.00
2018-02-06T13:14:22.852Z,35.17
2018-02-06T13:16:51.258Z,31.00
2018-02-06T13:19:19.817Z,34.33
2018-02-06T13:21:48.245Z,35.72
2018-02-06T13:24:16.633Z,36.90
2018-02-06T13:26:45.054Z,37.60
2018-02-06T13:29:13.529Z,37.28
2018-02-06T13:31:41.983Z,43.08
2018-02-06T13:34:10.381Z,41.05
2018-02-06T13:36:38.770Z,41.03
2018-02-06T13:39:07.170Z,40.50
2018-02-06T13:41:35.645Z,39.40
2018-02-06T13:44:04.102Z,36.25
2018-02-06T13:46:32.503Z,38.28
2018-02-06T13:49:01.009Z,41.40
2018-02-06T13:51:29.400Z,36.33
2018-02-06T13:53:57.776Z,43.58
2018-02-06T13:56:26.235Z,37.22
2018-02-06T13:58:54.664Z,37.20
2018-02-06T14:01:23.110Z,40.08
2018-02-06T14:03:51.501Z,36.08
2018-02-06T14:06:19.899Z,36.60
2018-02-06T14:08:48.482Z,35.28
2018-02-06T14:11:16.881Z,35.92
2018-02-06T14:13:45.289Z,34.00
2018-02-06T14:16:13.678Z,37.40
2018-02-06T14:18:42.080Z,33.40
2018-02-06T14:21:10.710Z,41.45
2018-02-06T14:23:39.115Z,39.95
2018-02-06T14:26:07.622Z,37.15
2018-02-06T14:28:36.011Z,44.80
2018-02-06T14:31:04.412Z,42.08
2018-02-06T14:33:32.911Z,48.10
2018-02-06T14:36:01.296Z,43.25
2018-02-06T14:38:29.796Z,43.63
2018-02-06T14:40:58.467Z,41.70
2018-02-06T14:43:26.864Z,42.15
2018-02-06T14:45:55.361Z,44.75
2018-02-06T14:48:23.752Z,38.72
2018-02-06T14:50:52.181Z,45.55
2018-02-06T14:53:20.583Z,42.58
2018-02-06T14:55:49.030Z,49.92
2018-02-06T14:58:17.508Z,44.78
2018-02-06T15:00:45.927Z,48.42
2018-02-06T15:03:14.334Z,41.60
2018-02-06T15:05:42.746Z,45.47
2018-02-06T15:08:11.171Z,49.40
2018-02-06T15:10:39.643Z,50.85
2018-02-06T15:13:08.033Z,52.40
2018-02-06T15:15:36.426Z,54.15
2018-02-06T15:18:04.811Z,43.85
2018-02-06T15:20:33.207Z,49.20
2018-02-06T15:23:01.730Z,44.75
2018-02-06T15:25:30.130Z,41.85
2018-02-06T15:27:58.550Z,47.58
2018-02-06T15:30:26.942Z,42.38
2018-02-06T15:32:55.342Z,47.00
2018-02-06T15:35:23.795Z,48.15
2018-02-06T15:37:52.214Z,53.03
2018-02-06T15:40:20.596Z,42.80
2018-02-06T15:42:49.008Z,48.70
2018-02-06T15:45:17.503Z,48.50
2018-02-06T15:47:46.024Z,44.33
2018-02-06T15:50:14.496Z,45.83
2018-02-06T15:52:42.949Z,49.17
2018-02-06T15:55:11.321Z,43.05
2018-02-06T15:57:39.719Z,48.78
2018-02-06T16:00:08.170Z,44.15
2018-02-06T16:02:36.587Z,48.50
2018-02-06T16:05:05.089Z,46.70
2018-02-06T16:07:33.479Z,47.50
2018-02-06T16:10:01.878Z,44.85
2018-02-06T16:12:30.422Z,44.95
2018-02-06T16:14:58.817Z,49.08
2018-02-06T16:17:27.215Z,49.20
2018-02-06T16:19:55.604Z,45.67
2018-02-06T16:22:23.996Z,40.05
2018-02-06T16:24:52.449Z,47.75
2018-02-06T16:27:20.826Z,49.50
2018-02-06T16:29:49.223Z,48.53
2018-02-06T16:32:17.627Z,49.58
2018-02-06T16:34:46.007Z,45.42
2018-02-06T16:37:14.457Z,47.35
2018-02-06T16:39:42.851Z,50.70
2018-02-06T16:42:11.233Z,51.35
2018-02-06T16:44:39.651Z,44.55
2018-02-06T16:47:08.029Z,47.45
2018-02-06T16:49:36.469Z,50.47
2018-02-06T16:52:04.865Z,54.40
2018-02-06T16:54:33.254Z,45.17
2018-02-06T16:57:03.486Z,46.55
2018-02-06T16:59:31.879Z,51.90
2018-02-06T17:02:00.325Z,49.83
2018-02-06T17:04:28.715Z,47.33
2018-02-06T17:06:57.243Z,46.45
2018-02-06T17:09:25.972Z,52.10
2018-02-06T17:14:29.715Z,47.53
2018-02-06T17:16:58.076Z,47.67
2018-02-06T17:19:26.530Z,47.15
2018-02-06T17:21:54.930Z,47.97
2018-02-06T17:24:23.613Z,47.53
2018-02-06T17:26:52.036Z,53.00
2018-02-06T17:29:20.816Z,46.88
2018-02-06T17:31:49.217Z,46.22
2018-02-06T17:34:17.743Z,52.38
2018-02-06T17:36:46.149Z,51.85
2018-02-06T17:39:36.337Z,46.85
2018-02-06T17:42:04.885Z,45.83
2018-02-06T17:44:33.417Z,50.67
2018-02-06T17:47:01.821Z,53.08
2018-02-06T17:49:30.235Z,44.65
2018-02-06T17:51:58.637Z,50.90
2018-02-06T17:54:27.043Z,56.53
2018-02-06T17:56:55.501Z,54.35
2018-02-06T17:59:23.884Z,49.15
2018-02-06T18:01:52.267Z,55.22
2018-02-06T18:04:20.660Z,56.92
2018-02-06T18:06:49.054Z,53.00
2018-02-06T18:09:17.801Z,53.50
2018-02-06T18:11:46.194Z,51.65
2018-02-06T18:14:14.575Z,57.42
2018-02-06T18:16:42.964Z,48.80
2018-02-06T18:19:11.376Z,50.03
2018-02-06T18:21:39.886Z,51.95
2018-02-06T18:24:08.276Z,58.92
2018-02-06T18:26:36.706Z,57.28
2018-02-06T18:29:05.098Z,44.80
2018-02-06T18:31:33.499Z,59.58
2018-02-06T18:34:02.013Z,49.45
2018-02-06T18:36:30.399Z,56.17
2018-02-06T18:38:58.791Z,58.05
2018-02-06T18:41:27.190Z,60.78
2018-02-06T18:43:56.123Z,64.68
2018-02-06T18:46:25.241Z,60.72
2018-02-06T18:48:53.908Z,58.80
2018-02-06T18:51:22.612Z,50.80
2018-02-06T18:53:52.181Z,49.05
2018-02-06T18:56:20.822Z,54.55
2018-02-06T18:58:49.588Z,58.25
2018-02-06T19:01:18.139Z,53.97
2018-02-06T19:03:47.837Z,56.45
2018-02-06T19:06:17.133Z,54.72
2018-02-06T19:08:45.894Z,59.92
2018-02-06T19:11:14.736Z,60.08
2018-02-06T19:13:43.563Z,56.17
2018-02-06T19:16:12.431Z,66.57
2018-02-06T19:18:41.131Z,58.35
2018-02-06T19:21:09.533Z,62.03
2018-02-06T19:23:38.080Z,64.03
2018-02-06T19:26:06.465Z,62.75
2018-02-06T19:28:34.866Z,69.68
2018-02-06T19:31:03.250Z,58.72
2018-02-06T19:33:31.621Z,59.58
2018-02-06T19:36:00.090Z,56.63
2018-02-06T19:38:28.648Z,61.72
2018-02-06T19:40:57.143Z,60.12
2018-02-06T19:43:25.534Z,60.50
2018-02-06T19:45:53.934Z,55.92
2018-02-06T19:48:22.469Z,64.95
2018-02-06T19:50:51.192Z,62.45
2018-02-06T19:53:19.619Z,64.70
2018-02-06T19:55:48.032Z,60.85
2018-02-06T19:58:16.433Z,67.97
2018-02-06T20:00:45.201Z,61.80
2018-02-06T20:03:13.589Z,62.40
2018-02-06T20:05:42.095Z,68.70
2018-02-06T20:08:10.498Z,65.95
2018-02-06T20:10:38.895Z,76.60
2018-02-06T20:13:07.359Z,62.40
2018-02-06T20:15:35.894Z,67.07
2018-02-06T20:18:04.284Z,59.70
2018-02-06T20:20:32.672Z,66.90
2018-02-06T20:23:01.073Z,64.03
2018-02-06T20:25:29.822Z,55.42
2018-02-06T20:27:58.209Z,66.22
2018-02-06T20:30:26.636Z,60.58
2018-02-06T20:32:55.010Z,57.75
2018-02-06T20:35:23.417Z,61.17
2018-02-06T20:37:51.881Z,63.40
2018-02-06T20:40:20.287Z,61.00
2018-02-06T20:42:48.674Z,61.58
2018-02-06T20:45:17.063Z,66.87
2018-02-06T20:47:45.447Z,57.00
2018-02-06T20:50:15.788Z,58.00
2018-02-06T20:52:44.178Z,59.50
2018-02-06T21:37:37.342Z,72.37
2018-02-06T21:40:05.778Z,60.80
2018-02-06T21:42:34.226Z,68.95
2018-02-06T21:45:02.605Z,69.55
2018-02-06T21:47:30.981Z,69.37
2018-02-06T21:49:59.713Z,74.72
2018-02-06T21:52:28.112Z,73.65
2018-02-06T21:54:56.513Z,68.93
2018-02-06T21:57:25.011Z,71.40
2018-02-06T21:59:53.406Z,68.05
2018-02-06T22:02:21.874Z,73.43
2018-02-06T22:04:50.282Z,71.82
2018-02-06T22:07:18.662Z,74.10
2018-02-06T22:09:47.050Z,69.95
2018-02-06T22:12:15.525Z,69.82
2018-02-06T22:14:43.995Z,74.12
2018-02-06T22:17:12.386Z,73.75
2018-02-06T22:19:40.780Z,70.70
2018-02-06T22:22:09.190Z,73.50
2018-02-06T22:24:37.601Z,72.80
2018-02-06T22:27:06.143Z,73.28
2018-02-06T22:32:27.330Z,74.10
2018-02-06T22:34:55.757Z,85.35
2018-02-06T22:37:24.166Z,77.18
2018-02-06T22:39:52.616Z,76.22
2018-02-06T22:42:21.012Z,71.18
2018-02-06T22:44:49.403Z,77.47
2018-02-06T22:47:17.792Z,66.95
2018-02-06T22:49:46.323Z,70.55
2018-02-06T22:52:14.818Z,80.82
2018-02-06T22:54:43.206Z,69.78
2018-02-06T22:57:11.600Z,75.82
2018-02-06T22:59:40.076Z,70.90
2018-02-06T23:02:08.466Z,64.90
2018-02-06T23:04:36.938Z,70.60
2018-02-06T23:07:05.341Z,80.05
2018-02-06T23:09:33.725Z,71.22
2018-02-06T23:12:02.231Z,66.57
2018-02-06T23:14:30.635Z,73.12
2018-02-06T23:16:59.276Z,72.40
2018-02-06T23:19:27.733Z,61.35
2018-02-06T23:21:56.116Z,75.80
2018-02-06T23:24:24.594Z,74.78
2018-02-06T23:26:53.001Z,76.93
2018-02-06T23:29:21.587Z,76.22
2018-02-06T23:31:49.987Z,84.18
2018-02-06T23:34:18.460Z,69.70
2018-02-06T23:36:46.899Z,77.82
2018-02-06T23:39:15.281Z,75.97
2018-02-06T23:41:43.721Z,75.62
2018-02-06T23:44:12.118Z,77.43
2018-02-06T23:46:41.653Z,75.90
2018-02-06T23:49:10.133Z,70.87
2018-02-06T23:51:38.521Z,75.07
2018-02-06T23:54:06.964Z,69.07
2018-02-06T23:56:35.748Z,78.95
2018-02-06T23:59:04.114Z,68.57
